Edmonton Stony Plain Alta., Canada
Current Conditions -  °F | °C
As of 8:00 PM on Monday 20 Oct 2014 (Local Time) from CWSE Reporting Station
Broken Clouds Broken Clouds  
Wind Chill: 16°   Ceiling: 24600
Heat Index: 16°   Visibility: 15mi
Dew Point:   Wind: 5mph
Humidity: 41%   Direction: 90°E
Pressure: 29.49"   Gusts: NA
Location:  53.53°N, 114.1°W
Report Text: CWSE 210200Z 09004KT 15SM FEW069 FEW118 SCT167 BKN246 16/02 A2949 RMK SLP977 LAST OBS/NEXT 211100Z T01550023 WSI/SWOB
Loading
Personal Weather Stations






























Interactive Weather Map
Tropical Storm Tracking
New forecast layout! Learn more

10-Day Weather Forecast

Advertisements
Track Severe Weather on mobile